Time;durP1;ratioP1;P1;durP2;ratioP2;P2;SDS_P1;SDS_P2;PMS_P1;PMS_P2;Temp;Humidity;BMP_temperature;BMP_pressure;BME280_temperature;BME280_humidity;BME280_pressure;Samples;Min_cycle;Max_cycle;Signal;HPM_P1;HPM_P2
2022/01/26 00:00:00;;;;;;;14.80;9.05;;;3.40;99.90;;;;;;5125341;22;20282;-69
2022/01/26 00:07:58;;;;;;;9.43;7.50;;;3.30;99.90;;;;;;5069469;28;20211;-69
2022/01/26 00:10:25;;;;;;;9.57;6.50;;;3.30;99.90;;;;;;5046101;28;20201;-70
2022/01/26 00:12:51;;;;;;;10.35;8.18;;;3.30;99.90;;;;;;5053052;28;20208;-70
2022/01/26 00:15:18;;;;;;;11.52;7.30;;;3.30;99.90;;;;;;5049940;28;20206;-70
2022/01/26 00:17:45;;;;;;;11.80;9.98;;;3.30;99.90;;;;;;5052603;28;20293;-69
2022/01/26 00:20:20;;;;;;;25.88;8.90;;;3.30;99.90;;;;;;5053315;28;20742;-70
2022/01/26 00:23:04;;;;;;;12.55;8.93;;;3.30;99.90;;;;;;5050918;28;20208;-70
2022/01/26 00:25:42;;;;;;;10.55;7.78;;;3.30;99.90;;;;;;5059134;28;20205;-69
2022/01/26 00:28:35;;;;;;;12.45;8.20;;;3.30;99.90;;;;;;5056778;28;20196;-69
2022/01/26 00:32:00;;;;;;;17.38;10.35;;;3.30;99.90;;;;;;5052915;28;20205;-70
2022/01/26 00:38:33;;;;;;;15.30;8.57;;;3.30;99.90;;;;;;5049084;28;20198;-69
2022/01/26 00:39:53;;;;;;;12.75;6.63;;;3.30;99.90;;;;;;5050097;28;20240;-69
2022/01/26 00:42:20;;;;;;;10.98;9.35;;;3.40;99.90;;;;;;5060940;28;20271;-70
2022/01/26 00:44:49;;;;;;;10.95;6.72;;;3.40;99.90;;;;;;5051466;28;20632;-71
2022/01/26 00:47:16;;;;;;;10.32;7.07;;;3.40;99.90;;;;;;5051360;28;20194;-71
2022/01/26 00:49:43;;;;;;;9.43;6.45;;;3.40;99.90;;;;;;5044282;28;20210;-72
2022/01/26 00:52:17;;;;;;;11.57;8.18;;;3.30;99.90;;;;;;5046891;28;20201;-70
2022/01/26 00:54:44;;;;;;;11.98;7.40;;;3.40;99.90;;;;;;5053718;28;20203;-71
2022/01/26 00:57:11;;;;;;;13.95;6.97;;;3.30;99.90;;;;;;5060239;28;20209;-69
2022/01/26 00:59:37;;;;;;;9.02;6.85;;;3.30;99.90;;;;;;5053908;28;20317;-70
2022/01/26 01:02:04;;;;;;;12.05;5.93;;;3.30;99.90;;;;;;5052989;28;20646;-70
2022/01/26 01:04:31;;;;;;;11.02;8.75;;;3.30;99.90;;;;;;5053070;28;20217;-70
2022/01/26 01:07:01;;;;;;;14.63;6.25;;;3.30;99.90;;;;;;5054275;28;20201;-71
2022/01/26 01:09:32;;;;;;;7.65;6.07;;;3.30;99.90;;;;;;5049975;28;20221;-70
2022/01/26 01:12:02;;;;;;;10.23;6.28;;;3.30;99.90;;;;;;5054100;28;20210;-70
2022/01/26 01:14:30;;;;;;;11.65;5.47;;;3.20;99.90;;;;;;5056434;28;20201;-70
2022/01/26 01:17:01;;;;;;;9.10;5.95;;;3.20;99.90;;;;;;5054661;28;20205;-69
2022/01/26 01:19:34;;;;;;;9.90;6.85;;;3.20;99.90;;;;;;5053224;28;20256;-70
2022/01/26 01:22:25;;;;;;;8.38;6.25;;;3.20;99.90;;;;;;5056646;28;20198;-69
2022/01/26 01:25:32;;;;;;;10.50;6.22;;;3.30;99.90;;;;;;5060225;28;20326;-71
2022/01/26 01:28:15;;;;;;;6.93;5.10;;;3.20;99.90;;;;;;5051866;28;20212;-69
2022/01/26 01:30:45;;;;;;;8.18;6.85;;;3.20;99.90;;;;;;5055095;28;20483;-70
2022/01/26 01:33:18;;;;;;;12.50;5.30;;;3.10;99.90;;;;;;5052278;28;20292;-70
2022/01/26 01:35:46;;;;;;;13.93;7.57;;;3.10;99.90;;;;;;5053671;28;20695;-71
2022/01/26 01:38:16;;;;;;;12.07;7.47;;;3.10;99.90;;;;;;5055233;28;20233;-71
2022/01/26 01:40:47;;;;;;;8.15;6.90;;;3.10;99.90;;;;;;5052300;28;20233;-69
2022/01/26 01:43:15;;;;;;;12.75;8.68;;;3.10;99.90;;;;;;5045709;28;20209;-69
2022/01/26 01:45:47;;;;;;;8.30;6.82;;;3.10;99.90;;;;;;5050871;28;20622;-69
2022/01/26 01:48:17;;;;;;;9.23;7.10;;;3.10;99.90;;;;;;5057233;28;20201;-70
2022/01/26 01:50:45;;;;;;;7.63;5.18;;;3.10;99.90;;;;;;5065916;28;20198;-69
2022/01/26 01:53:15;;;;;;;10.80;6.57;;;3.10;99.90;;;;;;5056431;28;20726;-70
2022/01/26 01:55:46;;;;;;;13.90;7.80;;;3.10;99.90;;;;;;5053433;28;20580;-71
2022/01/26 01:58:13;;;;;;;13.13;8.50;;;3.10;99.90;;;;;;5051431;28;20355;-70
2022/01/26 02:00:40;;;;;;;10.18;7.10;;;3.10;99.90;;;;;;5050349;28;20213;-69
2022/01/26 02:03:07;;;;;;;13.18;8.98;;;3.10;99.90;;;;;;5049903;28;20213;-69
2022/01/26 02:05:33;;;;;;;13.85;7.38;;;3.20;99.90;;;;;;5055582;28;20271;-69
2022/01/26 02:08:00;;;;;;;7.90;6.05;;;3.20;99.90;;;;;;5054120;28;20202;-70
2022/01/26 02:10:29;;;;;;;13.70;6.22;;;3.20;99.90;;;;;;5058376;28;20206;-69
2022/01/26 02:13:00;;;;;;;12.85;8.65;;;3.20;99.90;;;;;;5054735;28;20194;-69
2022/01/26 02:15:33;;;;;;;9.82;7.38;;;3.20;99.90;;;;;;5060159;28;20293;-70
2022/01/26 02:18:16;;;;;;;8.02;6.45;;;3.20;99.90;;;;;;5056606;28;20198;-69
2022/01/26 02:21:01;;;;;;;9.93;6.85;;;3.20;99.90;;;;;;5052746;28;20226;-69
2022/01/26 02:51:15;;;;;;;10.32;6.85;;;3.00;99.90;;;;;;5054916;28;20282;-71
2022/01/26 02:53:55;;;;;;;17.70;7.95;;;3.10;99.90;;;;;;5054221;28;20707;-70
2022/01/26 02:56:27;;;;;;;16.80;11.10;;;3.10;99.90;;;;;;5050786;28;20229;-70
2022/01/26 02:59:23;;;;;;;13.68;8.25;;;3.10;99.90;;;;;;5049723;28;20226;-70
2022/01/26 03:01:53;;;;;;;13.43;8.88;;;3.10;99.90;;;;;;5051624;28;20198;-70
2022/01/26 03:04:28;;;;;;;15.20;9.10;;;3.10;99.90;;;;;;5052054;28;20263;-69
2022/01/26 03:07:00;;;;;;;14.65;10.50;;;3.10;99.90;;;;;;5055178;28;20201;-70
2022/01/26 03:09:33;;;;;;;12.15;7.72;;;3.10;99.90;;;;;;5058348;28;20225;-69
2022/01/26 03:12:02;;;;;;;18.15;9.63;;;3.20;99.90;;;;;;5058173;28;20194;-69
2022/01/26 03:14:37;;;;;;;22.83;11.13;;;3.20;99.90;;;;;;5051232;28;20205;-69
2022/01/26 03:17:13;;;;;;;12.55;9.63;;;3.10;99.90;;;;;;5056111;28;20451;-70
2022/01/26 03:19:43;;;;;;;11.15;8.85;;;3.20;99.90;;;;;;5051706;28;20221;-71
2022/01/26 03:28:10;;;;;;;17.77;10.80;;;3.10;99.90;;;;;;5059316;28;20202;-70
2022/01/26 03:31:03;;;;;;;22.98;10.82;;;3.10;99.90;;;;;;5059513;28;20740;-70
2022/01/26 03:33:51;;;;;;;11.45;9.05;;;3.10;99.90;;;;;;5055007;28;20202;-70
2022/01/26 03:36:18;;;;;;;19.52;11.07;;;3.10;99.90;;;;;;5058211;28;20202;-69
2022/01/26 03:38:45;;;;;;;13.85;10.10;;;3.10;99.90;;;;;;5056367;28;20233;-69
2022/01/26 03:41:21;;;;;;;18.35;11.88;;;3.10;99.90;;;;;;5053721;28;20721;-70
2022/01/26 03:43:48;;;;;;;14.48;10.38;;;3.10;99.90;;;;;;5048835;28;20285;-71
2022/01/26 03:46:15;;;;;;;20.20;11.45;;;3.10;99.90;;;;;;5057390;28;20664;-70
2022/01/26 03:48:42;;;;;;;13.30;9.80;;;3.10;99.90;;;;;;5058888;28;20214;-68
2022/01/26 03:51:08;;;;;;;18.75;11.43;;;3.10;99.90;;;;;;5059904;28;20668;-70
2022/01/26 03:53:35;;;;;;;18.55;11.55;;;3.10;99.90;;;;;;5056015;28;20344;-69
2022/01/26 03:56:02;;;;;;;17.95;12.43;;;3.10;99.90;;;;;;5057961;28;20626;-69
2022/01/26 03:58:30;;;;;;;17.77;8.73;;;3.10;99.90;;;;;;5055587;28;20287;-69
2022/01/26 04:00:56;;;;;;;14.77;9.43;;;3.10;99.90;;;;;;5056466;28;20565;-70
2022/01/26 04:03:23;;;;;;;19.42;9.65;;;3.10;99.90;;;;;;5048471;28;20210;-70
2022/01/26 04:05:50;;;;;;;17.85;10.35;;;3.10;99.90;;;;;;5057135;28;20252;-70
2022/01/26 04:08:21;;;;;;;16.90;11.80;;;3.10;99.90;;;;;;5055872;28;20202;-69
2022/01/26 04:10:59;;;;;;;17.33;8.38;;;3.10;99.90;;;;;;5057258;28;20194;-70
2022/01/26 04:13:26;;;;;;;14.55;7.82;;;3.10;99.90;;;;;;5056916;28;20201;-70
2022/01/26 04:15:55;;;;;;;12.75;9.23;;;3.10;99.90;;;;;;5055479;28;20256;-68
2022/01/26 04:18:26;;;;;;;10.55;7.95;;;3.10;99.90;;;;;;5049045;28;20763;-69
2022/01/26 04:20:56;;;;;;;10.13;7.18;;;3.10;99.90;;;;;;5050076;28;20218;-69
2022/01/26 04:23:30;;;;;;;11.82;7.72;;;3.10;99.90;;;;;;5052249;28;20210;-70
2022/01/26 04:25:57;;;;;;;16.88;8.18;;;3.00;99.90;;;;;;5052606;28;20203;-70
2022/01/26 04:28:25;;;;;;;17.20;8.98;;;3.00;99.90;;;;;;5062206;28;20229;-70
2022/01/26 04:30:53;;;;;;;23.25;9.75;;;3.00;99.90;;;;;;5054406;28;21480;-69
2022/01/26 04:33:20;;;;;;;19.30;9.00;;;3.00;99.90;;;;;;5054103;28;20993;-69
2022/01/26 04:35:47;;;;;;;14.50;9.20;;;3.00;99.90;;;;;;5052679;28;20285;-69
2022/01/26 04:38:20;;;;;;;17.67;10.73;;;3.00;99.90;;;;;;5057917;28;20251;-68
2022/01/26 04:40:57;;;;;;;15.88;7.18;;;3.00;99.90;;;;;;5044814;28;20457;-69
2022/01/26 04:43:28;;;;;;;14.98;11.88;;;3.00;99.90;;;;;;5044494;28;20691;-69
2022/01/26 04:45:56;;;;;;;16.77;10.20;;;3.10;99.90;;;;;;5053524;28;20251;-69
2022/01/26 04:48:25;;;;;;;10.23;8.95;;;3.10;99.90;;;;;;5054027;28;20225;-68
2022/01/26 04:50:52;;;;;;;20.45;10.93;;;3.00;99.90;;;;;;5052808;28;20301;-68
2022/01/26 04:53:19;;;;;;;21.63;11.20;;;3.10;99.90;;;;;;5052235;28;20206;-68
2022/01/26 04:55:45;;;;;;;20.80;9.80;;;3.00;99.90;;;;;;5055186;28;20655;-69
2022/01/26 04:58:12;;;;;;;15.85;10.02;;;3.00;99.90;;;;;;5052199;28;20718;-69
2022/01/26 05:00:39;;;;;;;13.88;9.20;;;3.10;99.90;;;;;;5053210;28;20707;-70
2022/01/26 05:03:07;;;;;;;16.35;10.90;;;3.10;99.90;;;;;;5049099;28;20209;-68
2022/01/26 05:05:34;;;;;;;17.80;9.82;;;3.10;99.90;;;;;;5048823;28;20228;-68
2022/01/26 05:08:00;;;;;;;16.25;12.70;;;3.00;99.90;;;;;;5052614;28;20255;-68
2022/01/26 05:10:28;;;;;;;25.98;12.63;;;3.10;99.90;;;;;;5049635;28;20608;-68
2022/01/26 05:12:54;;;;;;;16.73;8.90;;;3.00;99.90;;;;;;5044049;28;20516;-68
2022/01/26 05:15:23;;;;;;;17.00;11.35;;;3.00;99.90;;;;;;5044809;28;20198;-68
2022/01/26 05:17:50;;;;;;;17.73;10.18;;;3.00;99.90;;;;;;5059311;28;20194;-69
2022/01/26 05:20:18;;;;;;;17.63;10.32;;;3.00;99.90;;;;;;5049486;28;20609;-69
2022/01/26 05:22:45;;;;;;;20.33;11.88;;;3.10;99.90;;;;;;5053054;28;20197;-68
2022/01/26 05:25:13;;;;;;;23.77;12.52;;;3.10;99.90;;;;;;5052807;28;20480;-68
2022/01/26 05:27:40;;;;;;;18.17;12.95;;;3.00;99.90;;;;;;5051316;28;20198;-70
2022/01/26 05:30:09;;;;;;;20.15;13.30;;;3.00;99.90;;;;;;5052514;28;20283;-69
2022/01/26 05:32:36;;;;;;;20.98;13.23;;;3.00;99.90;;;;;;5048866;28;20307;-70
2022/01/26 05:35:03;;;;;;;17.52;10.77;;;3.00;99.90;;;;;;5058304;28;20197;-69
2022/01/26 05:37:31;;;;;;;25.50;13.60;;;3.10;99.90;;;;;;5045625;28;20206;-71
2022/01/26 05:39:57;;;;;;;17.35;10.30;;;3.10;99.90;;;;;;5048338;28;20221;-70
2022/01/26 05:42:24;;;;;;;18.35;10.10;;;3.00;99.90;;;;;;5053596;28;20232;-68
2022/01/26 05:44:53;;;;;;;22.55;13.23;;;3.10;99.90;;;;;;5058252;28;20741;-68
2022/01/26 05:47:20;;;;;;;18.73;11.13;;;3.10;99.90;;;;;;5056447;28;20584;-68
2022/01/26 05:49:47;;;;;;;27.80;11.85;;;3.10;99.90;;;;;;5054706;28;20246;-69
2022/01/26 05:52:14;;;;;;;26.42;13.40;;;3.10;99.90;;;;;;5052017;28;20701;-70
2022/01/26 05:54:42;;;;;;;24.67;12.20;;;3.10;99.90;;;;;;5047086;28;20252;-69
2022/01/26 05:57:09;;;;;;;23.80;11.85;;;3.00;99.90;;;;;;5057752;28;20206;-69
2022/01/26 05:59:36;;;;;;;21.25;12.90;;;3.00;99.90;;;;;;5070741;22;20822;-67
2022/01/26 06:02:04;;;;;;;15.82;12.50;;;3.00;99.90;;;;;;5084756;28;20221;-67
2022/01/26 06:04:30;;;;;;;20.05;11.73;;;3.00;99.90;;;;;;5088274;28;20201;-67
2022/01/26 06:06:58;;;;;;;20.08;12.57;;;3.00;99.90;;;;;;5087548;28;20212;-67
2022/01/26 06:09:25;;;;;;;18.75;11.73;;;3.00;99.90;;;;;;5083577;28;20290;-67
2022/01/26 06:11:52;;;;;;;24.52;11.63;;;3.00;99.90;;;;;;5084650;28;20443;-67
2022/01/26 06:14:19;;;;;;;20.17;14.38;;;3.00;99.90;;;;;;5077419;28;20243;-67
2022/01/26 06:16:46;;;;;;;21.02;12.75;;;3.00;99.90;;;;;;5082851;28;20262;-67
2022/01/26 06:19:12;;;;;;;28.23;13.80;;;3.00;99.90;;;;;;5082409;28;20970;-67
2022/01/26 06:21:39;;;;;;;25.40;13.27;;;3.00;99.90;;;;;;5083490;28;20366;-67
2022/01/26 06:24:06;;;;;;;29.40;16.48;;;3.00;99.90;;;;;;5077077;28;20583;-66
2022/01/26 06:26:33;;;;;;;22.67;11.90;;;3.00;99.90;;;;;;5081384;28;20239;-67
2022/01/26 06:29:01;;;;;;;20.00;12.60;;;3.00;99.90;;;;;;5078775;28;20197;-67
2022/01/26 06:31:28;;;;;;;29.40;14.10;;;3.00;99.90;;;;;;5085643;28;20207;-68
2022/01/26 06:33:56;;;;;;;18.90;12.65;;;2.90;99.90;;;;;;5080877;28;20248;-67
2022/01/26 06:36:23;;;;;;;22.10;12.38;;;2.90;99.90;;;;;;5086407;28;20200;-68
2022/01/26 06:38:50;;;;;;;23.75;14.15;;;2.90;99.90;;;;;;5077535;28;20205;-67
2022/01/26 06:41:23;;;;;;;28.02;11.82;;;2.90;99.90;;;;;;5088586;28;20248;-67
2022/01/26 06:43:55;;;;;;;21.20;12.15;;;3.00;99.90;;;;;;5080972;28;20558;-67
2022/01/26 06:46:28;;;;;;;17.88;9.35;;;2.90;99.90;;;;;;5084330;28;20205;-67
2022/01/26 06:49:28;;;;;;;20.42;12.10;;;2.90;99.90;;;;;;5085460;28;20196;-67
2022/01/26 06:51:51;;;;;;;15.68;10.88;;;2.90;99.90;;;;;;5087214;28;20203;-68
2022/01/26 06:54:18;;;;;;;21.38;12.02;;;2.90;99.90;;;;;;5081324;28;20201;-67
2022/01/26 06:56:45;;;;;;;20.38;13.52;;;2.90;99.90;;;;;;5084758;28;20197;-67
2022/01/26 06:59:12;;;;;;;15.05;9.60;;;2.90;99.90;;;;;;5079078;28;20571;-68
2022/01/26 07:01:40;;;;;;;26.58;11.73;;;2.90;99.90;;;;;;5078485;28;20220;-67
2022/01/26 07:04:07;;;;;;;18.52;11.52;;;2.90;99.90;;;;;;5079615;28;20216;-67
2022/01/26 07:06:34;;;;;;;24.85;12.45;;;2.90;99.90;;;;;;5081130;28;20639;-67
2022/01/26 07:09:01;;;;;;;21.13;13.15;;;2.90;99.90;;;;;;5078363;28;20255;-67
2022/01/26 07:11:28;;;;;;;21.25;14.27;;;2.80;99.90;;;;;;5078788;28;20289;-67
2022/01/26 07:13:58;;;;;;;26.70;15.57;;;2.80;99.90;;;;;;5081401;28;20686;-68
2022/01/26 07:21:54;;;;;;;32.50;17.00;;;2.80;99.90;;;;;;5081529;28;20287;-67
2022/01/26 07:24:21;;;;;;;26.77;11.00;;;2.80;99.90;;;;;;5087531;28;20642;-67
2022/01/26 07:26:52;;;;;;;19.63;12.73;;;2.80;99.90;;;;;;5083675;28;20197;-69
2022/01/26 07:29:22;;;;;;;24.13;16.15;;;2.80;99.90;;;;;;5078656;28;20232;-67
2022/01/26 07:31:49;;;;;;;17.48;11.13;;;2.80;99.90;;;;;;5085887;28;20280;-68
2022/01/26 07:34:20;;;;;;;16.05;10.63;;;2.80;99.90;;;;;;5081845;28;20680;-67
2022/01/26 07:36:48;;;;;;;19.88;10.93;;;2.80;99.90;;;;;;5086496;28;20274;-67
2022/01/26 07:39:18;;;;;;;22.60;12.38;;;2.70;99.90;;;;;;5081325;28;20630;-66
2022/01/26 07:41:45;;;;;;;19.83;10.85;;;2.70;99.90;;;;;;5085427;28;20244;-67
2022/01/26 07:44:12;;;;;;;18.70;11.40;;;2.70;99.90;;;;;;5084865;28;20273;-67
2022/01/26 07:46:39;;;;;;;22.08;11.82;;;2.70;99.90;;;;;;5080481;28;20192;-67
2022/01/26 07:49:06;;;;;;;16.88;11.18;;;2.70;99.90;;;;;;5081207;28;20289;-67
2022/01/26 07:51:34;;;;;;;18.67;12.35;;;2.70;99.90;;;;;;5076431;28;20276;-67
2022/01/26 07:54:00;;;;;;;18.92;9.98;;;2.70;99.90;;;;;;5078797;28;20205;-67
2022/01/26 07:56:28;;;;;;;17.98;11.32;;;2.60;99.90;;;;;;5084768;28;20209;-67
2022/01/26 07:58:56;;;;;;;27.58;12.65;;;2.60;99.90;;;;;;5080075;28;20204;-67
2022/01/26 08:01:23;;;;;;;17.70;10.60;;;2.60;99.90;;;;;;5079380;28;20483;-67
2022/01/26 08:03:50;;;;;;;17.77;9.38;;;2.60;99.90;;;;;;5081973;28;20197;-67
2022/01/26 08:06:18;;;;;;;22.38;10.10;;;2.60;99.90;;;;;;5081430;28;20209;-68
2022/01/26 08:08:46;;;;;;;21.25;11.93;;;2.60;99.90;;;;;;5079280;28;20201;-68
2022/01/26 08:11:12;;;;;;;17.85;12.38;;;2.60;99.90;;;;;;5081991;28;21167;-69
2022/01/26 08:13:39;;;;;;;19.58;12.35;;;2.60;99.90;;;;;;5085293;28;20302;-68
2022/01/26 08:16:06;;;;;;;20.10;12.75;;;2.60;99.90;;;;;;5083569;28;20285;-69
2022/01/26 08:18:32;;;;;;;26.60;14.40;;;2.60;99.90;;;;;;5084208;28;20201;-69
2022/01/26 08:21:04;;;;;;;21.45;13.52;;;2.60;99.90;;;;;;5084483;28;20220;-69
2022/01/26 08:23:31;;;;;;;16.67;13.68;;;2.70;99.90;;;;;;5085008;28;20253;-69
2022/01/26 08:25:59;;;;;;;22.80;13.82;;;2.70;99.90;;;;;;5083023;28;20247;-68
2022/01/26 08:28:31;;;;;;;33.97;17.02;;;2.80;99.90;;;;;;5083435;28;20258;-68
2022/01/26 08:30:58;;;;;;;28.75;14.98;;;2.80;99.90;;;;;;5083211;28;20735;-68
2022/01/26 08:33:24;;;;;;;27.33;14.45;;;2.70;99.90;;;;;;5080725;28;20227;-69
2022/01/26 08:35:51;;;;;;;26.73;11.75;;;2.70;99.90;;;;;;5081106;28;20245;-69
2022/01/26 08:38:19;;;;;;;25.27;11.38;;;2.80;99.90;;;;;;5084636;28;20209;-69
2022/01/26 08:40:47;;;;;;;25.00;13.30;;;2.80;99.90;;;;;;5078105;28;20536;-68
2022/01/26 08:43:15;;;;;;;22.30;12.90;;;2.80;99.90;;;;;;5085465;28;20312;-69
2022/01/26 08:45:41;;;;;;;21.52;13.80;;;2.80;99.90;;;;;;5078292;28;20200;-69
2022/01/26 08:48:08;;;;;;;19.45;12.93;;;2.80;99.90;;;;;;5082580;28;20274;-68
2022/01/26 08:50:35;;;;;;;18.10;12.38;;;2.80;99.90;;;;;;5081775;28;20224;-69
2022/01/26 08:53:02;;;;;;;26.17;13.18;;;2.80;99.90;;;;;;5073632;28;20223;-68
2022/01/26 08:55:29;;;;;;;28.50;11.25;;;2.80;99.90;;;;;;5080942;28;20209;-68
2022/01/26 08:57:56;;;;;;;14.00;11.20;;;2.80;99.90;;;;;;5082726;28;20597;-68
2022/01/26 09:00:24;;;;;;;21.02;12.32;;;2.80;99.90;;;;;;5081015;28;20248;-68
2022/01/26 09:02:51;;;;;;;22.95;10.88;;;2.90;99.90;;;;;;5075048;28;20236;-69
2022/01/26 09:05:18;;;;;;;18.90;8.85;;;2.90;99.90;;;;;;5076240;28;20227;-69
2022/01/26 09:07:45;;;;;;;23.27;12.15;;;2.90;99.90;;;;;;5080672;28;20659;-69
2022/01/26 09:10:12;;;;;;;21.48;11.48;;;3.00;99.90;;;;;;5087890;28;20224;-67
2022/01/26 09:12:42;;;;;;;17.85;11.18;;;3.00;99.90;;;;;;5094125;28;20189;-70
2022/01/26 09:15:10;;;;;;;27.25;11.88;;;3.00;99.90;;;;;;5097380;28;20212;-68
2022/01/26 09:17:39;;;;;;;17.88;9.60;;;3.00;99.90;;;;;;5094035;28;20201;-67
2022/01/26 09:20:08;;;;;;;21.98;11.27;;;3.00;99.90;;;;;;5092529;28;20248;-68
2022/01/26 09:22:35;;;;;;;24.23;10.50;;;3.00;99.90;;;;;;5082482;28;20308;-67
2022/01/26 09:25:01;;;;;;;14.00;10.00;;;3.00;99.90;;;;;;5082137;28;20254;-68
2022/01/26 09:27:28;;;;;;;20.00;10.07;;;3.00;99.90;;;;;;5081303;28;20278;-67
2022/01/26 09:29:55;;;;;;;19.60;10.32;;;3.00;99.90;;;;;;5082405;28;20268;-67
2022/01/26 09:32:22;;;;;;;10.70;7.63;;;3.00;99.90;;;;;;5081158;28;20208;-67
2022/01/26 09:34:50;;;;;;;18.75;9.38;;;3.00;99.90;;;;;;5082744;28;20211;-68
2022/01/26 09:37:18;;;;;;;24.25;11.20;;;3.00;99.90;;;;;;5083386;28;20192;-67
2022/01/26 09:39:47;;;;;;;15.07;10.93;;;3.00;99.90;;;;;;5083598;28;20228;-67
2022/01/26 09:42:14;;;;;;;18.80;10.07;;;2.90;99.90;;;;;;5078571;28;20221;-66
2022/01/26 09:44:41;;;;;;;19.05;11.70;;;2.90;99.90;;;;;;5084240;28;20335;-67
2022/01/26 09:47:09;;;;;;;11.95;10.38;;;2.90;99.90;;;;;;5074245;28;20232;-67
2022/01/26 09:49:36;;;;;;;22.08;10.80;;;3.00;99.90;;;;;;5085364;28;20228;-67
2022/01/26 09:52:13;;;;;;;20.98;12.85;;;3.00;99.90;;;;;;5078681;28;20309;-67
2022/01/26 09:54:40;;;;;;;30.38;14.80;;;2.90;99.90;;;;;;5080411;28;20214;-68
2022/01/26 09:57:07;;;;;;;14.10;9.88;;;2.80;99.90;;;;;;5078574;28;20231;-67
2022/01/26 09:59:33;;;;;;;24.52;14.20;;;2.80;99.90;;;;;;5082545;28;20297;-66
2022/01/26 10:02:01;;;;;;;25.08;12.38;;;2.70;99.90;;;;;;5076708;28;20350;-67
2022/01/26 10:04:31;;;;;;;29.90;13.80;;;2.70;99.90;;;;;;5081022;28;20277;-67
2022/01/26 10:07:24;;;;;;;24.92;11.23;;;2.80;99.90;;;;;;5080309;28;20216;-66
2022/01/26 10:10:06;;;;;;;16.42;10.65;;;2.80;99.90;;;;;;5076777;28;20299;-66
2022/01/26 10:15:31;;;;;;;23.38;13.48;;;2.90;99.90;;;;;;5078896;28;20219;-67
2022/01/26 10:18:04;;;;;;;22.17;12.30;;;2.90;99.90;;;;;;5079892;28;20350;-67
2022/01/26 10:20:43;;;;;;;19.10;11.30;;;2.90;99.90;;;;;;5071275;28;20369;-66
2022/01/26 10:23:16;;;;;;;17.50;12.38;;;2.90;99.90;;;;;;5075370;28;20697;-66
2022/01/26 10:25:43;;;;;;;21.75;13.35;;;2.90;99.90;;;;;;5079300;28;20201;-67
2022/01/26 10:28:11;;;;;;;19.27;12.02;;;2.80;99.90;;;;;;5086844;28;20662;-67
2022/01/26 10:30:44;;;;;;;16.52;13.15;;;2.80;99.90;;;;;;5077701;28;20711;-68
2022/01/26 10:33:11;;;;;;;23.95;11.75;;;2.80;99.90;;;;;;5082111;28;20221;-67
2022/01/26 10:35:38;;;;;;;22.33;9.57;;;2.70;99.90;;;;;;5082498;28;20306;-67
2022/01/26 10:38:05;;;;;;;22.17;12.35;;;2.70;99.90;;;;;;5079011;28;20710;-68
2022/01/26 10:40:35;;;;;;;23.05;10.95;;;2.70;99.90;;;;;;5073317;28;20220;-67
2022/01/26 10:43:07;;;;;;;22.70;11.52;;;2.70;99.90;;;;;;5077146;28;20213;-68
2022/01/26 10:45:53;;;;;;;29.98;11.63;;;2.80;99.90;;;;;;5074584;28;20208;-67
2022/01/26 10:48:28;;;;;;;32.03;15.95;;;2.80;99.90;;;;;;5085777;28;20220;-67
2022/01/26 10:51:31;;;;;;;32.17;12.20;;;2.80;99.90;;;;;;5085618;28;20216;-67
2022/01/26 10:54:12;;;;;;;20.25;11.68;;;2.80;99.90;;;;;;5078476;28;20218;-67
2022/01/26 10:56:40;;;;;;;15.18;12.88;;;2.80;99.90;;;;;;5079127;28;20228;-67
2022/01/26 10:59:07;;;;;;;18.42;11.90;;;2.80;99.90;;;;;;5079542;28;20245;-67
2022/01/26 11:01:36;;;;;;;33.53;15.10;;;2.80;99.90;;;;;;5073196;28;20284;-67
2022/01/26 11:04:04;;;;;;;20.25;12.85;;;2.80;99.90;;;;;;5080198;28;20293;-67
2022/01/26 11:06:30;;;;;;;28.05;13.18;;;2.80;99.90;;;;;;5075561;28;20197;-67
2022/01/26 11:09:01;;;;;;;26.27;11.40;;;2.90;99.90;;;;;;5081790;28;20220;-67
2022/01/26 11:11:28;;;;;;;22.02;11.05;;;2.90;99.90;;;;;;5079799;28;20356;-67
2022/01/26 11:13:56;;;;;;;21.42;10.57;;;3.00;99.90;;;;;;5082836;28;20285;-67
2022/01/26 11:16:23;;;;;;;22.02;11.15;;;3.00;99.90;;;;;;5083770;28;20208;-67
2022/01/26 11:18:51;;;;;;;24.63;11.35;;;3.00;99.90;;;;;;5081023;28;20274;-64
2022/01/26 11:21:29;;;;;;;25.65;10.73;;;3.00;99.90;;;;;;5072385;28;20292;-63
2022/01/26 11:24:08;;;;;;;21.98;10.85;;;3.20;99.90;;;;;;5080688;28;20225;-68
2022/01/26 11:26:38;;;;;;;17.67;10.27;;;3.30;99.90;;;;;;5072212;28;20201;-68
2022/01/26 11:29:15;;;;;;;28.17;13.68;;;3.30;99.90;;;;;;5077496;28;20208;-68
2022/01/26 11:31:42;;;;;;;24.60;10.57;;;3.30;99.90;;;;;;5077093;28;20273;-68
2022/01/26 11:34:10;;;;;;;20.67;13.35;;;3.30;99.90;;;;;;5081867;28;20220;-68
2022/01/26 11:36:40;;;;;;;21.75;14.45;;;3.30;99.90;;;;;;5075382;28;20296;-68
2022/01/26 11:42:14;;;;;;;36.45;13.82;;;3.30;99.90;;;;;;5074130;28;20210;-68
2022/01/26 11:42:23;;;;;;;26.05;10.88;;;3.30;99.90;;;;;;5080448;28;20197;-69
2022/01/26 11:45:07;;;;;;;30.63;14.20;;;3.30;99.90;;;;;;5075517;28;20223;-68
2022/01/26 11:47:36;;;;;;;35.85;14.07;;;3.30;99.90;;;;;;5080886;28;20686;-68
2022/01/26 11:50:12;;;;;;;30.60;13.73;;;3.30;99.90;;;;;;5080162;28;20216;-68
2022/01/26 11:52:40;;;;;;;23.30;13.52;;;3.40;99.90;;;;;;5085077;28;20215;-68
2022/01/26 11:55:28;;;;;;;21.20;9.75;;;3.40;99.90;;;;;;5083246;28;20244;-69
2022/01/26 11:58:05;;;;;;;18.92;11.00;;;3.40;99.90;;;;;;5079020;28;20280;-69
2022/01/26 12:00:44;;;;;;;23.38;9.63;;;3.50;99.90;;;;;;5106320;22;20232;-70
2022/01/26 12:03:22;;;;;;;26.27;10.85;;;3.50;99.90;;;;;;5081151;28;20901;-71
2022/01/26 12:05:50;;;;;;;17.70;11.30;;;3.50;99.90;;;;;;5084059;28;20200;-70
2022/01/26 12:08:28;;;;;;;15.10;7.28;;;3.50;99.90;;;;;;5090582;28;20200;-70
2022/01/26 12:10:54;;;;;;;27.08;8.90;;;3.50;99.90;;;;;;5087486;28;20224;-72
2022/01/26 12:13:26;;;;;;;25.55;12.25;;;3.50;99.90;;;;;;5069150;28;20266;-69
2022/01/26 12:15:56;;;;;;;24.95;9.70;;;3.50;99.90;;;;;;5070147;28;20212;-70
2022/01/26 12:18:30;;;;;;;18.13;8.88;;;3.50;99.90;;;;;;5070984;28;20205;-69
2022/01/26 12:35:14;;;;;;;14.60;8.10;;;3.50;99.90;;;;;;5051896;28;20253;-69
2022/01/26 12:37:52;;;;;;;11.57;7.22;;;3.50;99.90;;;;;;5069254;28;20211;-70
2022/01/26 12:43:16;;;;;;;15.98;7.50;;;3.50;99.90;;;;;;5069246;28;20701;-69
2022/01/26 12:45:46;;;;;;;13.27;6.47;;;3.50;99.90;;;;;;5069199;28;20210;-69
2022/01/26 12:48:14;;;;;;;10.57;6.40;;;3.50;99.90;;;;;;5068587;28;20702;-73
2022/01/26 12:50:42;;;;;;;14.40;6.93;;;3.50;99.90;;;;;;5068875;28;20714;-70
2022/01/26 12:53:09;;;;;;;12.73;6.47;;;3.40;99.90;;;;;;5073131;28;20208;-70
2022/01/26 12:55:38;;;;;;;13.90;6.45;;;3.40;99.90;;;;;;5069337;28;20201;-71
2022/01/26 12:58:05;;;;;;;16.58;6.97;;;3.40;99.90;;;;;;5068663;28;20225;-71
2022/01/26 13:00:43;;;;;;;11.77;6.78;;;3.40;99.90;;;;;;5075382;28;20235;-68
2022/01/26 13:03:12;;;;;;;13.35;7.57;;;3.40;99.90;;;;;;5068760;28;20228;-69
2022/01/26 13:05:40;;;;;;;20.80;7.72;;;3.40;99.90;;;;;;5068984;28;20235;-68
2022/01/26 13:08:10;;;;;;;14.35;8.52;;;3.50;99.90;;;;;;5070160;28;20231;-68
2022/01/26 13:10:37;;;;;;;14.85;6.57;;;3.50;99.90;;;;;;5073352;28;20221;-67
2022/01/26 13:13:16;;;;;;;12.98;6.32;;;3.50;99.90;;;;;;5073753;28;20204;-69
2022/01/26 13:15:49;;;;;;;14.25;8.63;;;3.50;99.90;;;;;;5069868;28;20208;-67
2022/01/26 13:24:03;;;;;;;12.85;8.57;;;3.50;99.90;;;;;;5053204;28;20359;-68
2022/01/26 13:26:38;;;;;;;9.95;6.53;;;3.40;99.90;;;;;;5066796;28;20277;-70
2022/01/26 13:29:21;;;;;;;16.15;7.60;;;3.40;99.90;;;;;;5073660;28;20259;-68
2022/01/26 13:32:16;;;;;;;11.45;7.00;;;3.50;99.90;;;;;;5073684;28;20276;-68
2022/01/26 13:37:38;;;;;;;10.25;7.70;;;3.50;99.90;;;;;;5073382;28;20201;-69
2022/01/26 13:40:20;;;;;;;15.63;8.25;;;3.40;99.90;;;;;;5073041;28;20594;-68
2022/01/26 13:43:28;;;;;;;10.23;8.95;;;3.40;99.90;;;;;;5068104;28;20288;-69
2022/01/26 13:48:53;;;;;;;18.95;7.25;;;3.50;99.90;;;;;;5068220;28;20576;-70
2022/01/26 13:51:23;;;;;;;18.10;8.77;;;3.40;99.90;;;;;;5072288;28;20228;-68
2022/01/26 13:53:58;;;;;;;11.43;7.63;;;3.30;99.90;;;;;;5071072;28;20204;-68
2022/01/26 13:56:37;;;;;;;10.20;7.10;;;3.30;99.90;;;;;;5075173;28;20277;-68
2022/01/26 13:59:13;;;;;;;14.90;8.27;;;3.40;99.90;;;;;;5075386;28;20212;-69
2022/01/26 14:01:43;;;;;;;9.82;5.43;;;3.40;99.90;;;;;;5073682;28;20248;-68
2022/01/26 14:04:10;;;;;;;12.63;8.40;;;3.40;99.90;;;;;;5077692;28;20220;-67
2022/01/26 14:06:37;;;;;;;11.40;8.02;;;3.30;99.90;;;;;;5074395;28;20210;-68
2022/01/26 14:09:05;;;;;;;17.95;9.18;;;3.30;99.90;;;;;;5078038;28;20201;-68
2022/01/26 14:11:32;;;;;;;22.27;9.90;;;3.30;99.90;;;;;;5072085;28;20286;-69
2022/01/26 14:13:59;;;;;;;12.52;10.07;;;3.40;99.90;;;;;;5073991;28;20213;-68
2022/01/26 14:16:29;;;;;;;11.43;8.15;;;3.40;99.90;;;;;;5072259;28;20215;-68